Time;durP1;ratioP1;P1;durP2;ratioP2;P2;SDS_P1;SDS_P2;PMS_P1;PMS_P2;Temp;Humidity;BMP_temperature;BMP_pressure;BME280_temperature;BME280_humidity;BME280_pressure;Samples;Min_cycle;Max_cycle;Signal;HPM_P1;HPM_P2
2023/02/05 00:00:18;;;;;;;9.77;3.25;;;1.30;99.90;;;;;;5024582;28;20037;-75
2023/02/05 00:02:43;;;;;;;5.07;3.20;;;1.30;99.90;;;;;;5027688;28;20104;-74
2023/02/05 00:05:09;;;;;;;5.43;2.92;;;1.40;99.90;;;;;;5023098;28;20128;-74
2023/02/05 00:07:35;;;;;;;8.40;3.47;;;1.30;99.90;;;;;;5024923;28;20030;-75
2023/02/05 00:10:02;;;;;;;7.28;3.55;;;1.30;99.90;;;;;;5040583;28;20041;-74
2023/02/05 00:12:27;;;;;;;5.53;3.25;;;1.30;99.90;;;;;;5023677;28;20462;-75
2023/02/05 00:14:53;;;;;;;8.95;4.22;;;1.30;99.90;;;;;;5024826;28;20033;-74
2023/02/05 00:17:19;;;;;;;4.97;3.03;;;1.30;99.90;;;;;;5022798;28;20519;-75
2023/02/05 00:19:45;;;;;;;5.95;3.45;;;1.30;99.90;;;;;;5011292;28;20029;-75
2023/02/05 00:22:10;;;;;;;6.68;3.67;;;1.20;99.90;;;;;;5028172;28;20037;-75
2023/02/05 00:24:36;;;;;;;9.48;4.00;;;1.30;99.90;;;;;;5027476;28;20040;-75
2023/02/05 00:27:02;;;;;;;10.07;4.78;;;1.20;99.90;;;;;;5027305;28;20046;-75
2023/02/05 00:29:28;;;;;;;10.55;4.15;;;1.30;99.90;;;;;;5026439;28;20044;-75
2023/02/05 00:31:54;;;;;;;9.30;3.58;;;1.20;99.90;;;;;;5022341;28;20033;-75
2023/02/05 00:34:19;;;;;;;8.35;3.78;;;1.20;99.90;;;;;;5043557;28;20558;-75
2023/02/05 00:36:46;;;;;;;6.75;3.88;;;1.20;99.90;;;;;;5028254;28;20120;-75
2023/02/05 00:39:13;;;;;;;9.93;3.80;;;1.10;99.90;;;;;;5026924;28;20698;-74
2023/02/05 00:41:39;;;;;;;8.43;3.50;;;1.20;99.90;;;;;;5028458;28;20026;-75
2023/02/05 00:44:06;;;;;;;7.72;4.10;;;1.10;99.90;;;;;;5023964;28;20105;-75
2023/02/05 00:46:31;;;;;;;9.68;4.43;;;1.10;99.90;;;;;;5026492;28;20037;-75
2023/02/05 00:48:57;;;;;;;7.60;4.22;;;1.10;99.90;;;;;;5026416;28;20040;-75
2023/02/05 00:51:23;;;;;;;8.05;3.40;;;1.10;99.90;;;;;;5026429;28;20033;-75
2023/02/05 00:53:49;;;;;;;7.07;3.67;;;1.10;99.90;;;;;;5023981;28;20029;-75
2023/02/05 00:56:16;;;;;;;6.57;3.50;;;1.00;99.90;;;;;;5028168;28;20037;-75
2023/02/05 00:58:46;;;;;;;7.45;3.25;;;1.00;99.90;;;;;;5030046;28;20048;-75
2023/02/05 01:01:13;;;;;;;8.63;3.92;;;1.00;99.90;;;;;;5026416;28;20087;-75
2023/02/05 01:03:39;;;;;;;6.90;3.15;;;1.00;99.90;;;;;;5026888;28;20135;-75
2023/02/05 01:06:05;;;;;;;6.40;3.00;;;1.00;99.90;;;;;;5027124;28;20040;-75
2023/02/05 01:08:31;;;;;;;6.22;2.95;;;1.00;99.90;;;;;;5027767;28;20378;-75
2023/02/05 01:10:57;;;;;;;6.25;3.15;;;0.90;99.90;;;;;;5024192;28;20121;-75
2023/02/05 01:13:24;;;;;;;6.82;2.97;;;0.90;99.90;;;;;;5027613;28;20524;-75
2023/02/05 01:15:50;;;;;;;5.00;2.58;;;0.90;99.90;;;;;;5020878;28;20030;-75
2023/02/05 01:18:15;;;;;;;6.15;2.80;;;0.90;99.90;;;;;;5026055;28;20041;-75
2023/02/05 01:20:42;;;;;;;6.05;2.40;;;0.90;99.90;;;;;;5026931;28;20030;-75
2023/02/05 01:23:09;;;;;;;5.00;2.80;;;0.90;99.90;;;;;;5026191;28;20045;-75
2023/02/05 01:25:35;;;;;;;5.72;2.95;;;0.90;99.90;;;;;;5027445;28;20560;-76
2023/02/05 01:28:01;;;;;;;4.53;2.20;;;0.90;99.90;;;;;;5028856;28;20030;-75
2023/02/05 01:30:27;;;;;;;7.53;2.50;;;0.80;99.90;;;;;;5032673;28;20075;-75
2023/02/05 01:32:52;;;;;;;4.85;2.50;;;0.80;99.90;;;;;;5034491;28;20034;-75
2023/02/05 01:35:18;;;;;;;5.07;2.40;;;0.80;99.90;;;;;;5035407;28;20390;-75
2023/02/05 01:37:44;;;;;;;4.93;2.40;;;0.80;99.90;;;;;;5011540;28;20477;-74
2023/02/05 01:40:14;;;;;;;4.60;2.25;;;0.80;99.90;;;;;;5027223;28;20045;-74
2023/02/05 01:42:41;;;;;;;4.72;2.17;;;0.70;99.90;;;;;;5007994;28;20458;-74
2023/02/05 01:46:02;;;;;;;5.07;2.38;;;0.70;99.90;;;;;;5027897;28;20030;-74
2023/02/05 01:48:36;;;;;;;6.82;2.47;;;0.80;99.90;;;;;;5025137;28;20116;-74
2023/02/05 01:51:07;;;;;;;5.47;2.42;;;0.70;99.90;;;;;;5028300;28;20033;-74
2023/02/05 01:53:34;;;;;;;;;;;0.70;99.90;;;;;;5023899;28;20022;-74
2023/02/05 01:56:05;;;;;;;5.47;2.22;;;0.70;99.90;;;;;;5029850;28;19912;-74
2023/02/05 01:58:41;;;;;;;7.20;2.53;;;0.60;99.90;;;;;;5040653;28;20041;-74
2023/02/05 02:01:07;;;;;;;3.28;1.88;;;0.60;99.90;;;;;;5009018;28;20351;-74
2023/02/05 02:03:33;;;;;;;4.10;2.17;;;0.70;99.90;;;;;;5026698;28;20036;-74
2023/02/05 02:05:59;;;;;;;4.80;2.28;;;0.70;99.90;;;;;;5026691;28;20410;-74
2023/02/05 02:08:25;;;;;;;3.20;2.08;;;0.60;99.90;;;;;;5027024;28;20109;-75
2023/02/05 02:10:54;;;;;;;3.75;2.72;;;0.60;99.90;;;;;;5024296;28;20036;-74
2023/02/05 02:13:21;;;;;;;2.80;1.83;;;0.60;99.90;;;;;;5025089;28;20064;-74
2023/02/05 02:15:49;;;;;;;2.90;2.03;;;0.60;99.90;;;;;;5023640;28;20101;-74
2023/02/05 02:18:27;;;;;;;4.40;2.53;;;0.50;99.90;;;;;;5025856;28;20510;-74
2023/02/05 02:21:20;;;;;;;4.57;2.08;;;0.50;99.90;;;;;;5027583;28;20466;-74
2023/02/05 02:24:11;;;;;;;6.78;2.25;;;0.60;99.90;;;;;;5026294;28;20562;-74
2023/02/05 02:27:14;;;;;;;3.58;1.88;;;0.60;99.90;;;;;;5024227;28;20033;-74
2023/02/05 02:30:13;;;;;;;3.92;2.30;;;0.70;99.90;;;;;;5027614;28;20443;-74
2023/02/05 02:32:48;;;;;;;3.97;2.40;;;0.60;99.90;;;;;;5015394;28;20030;-74
2023/02/05 02:35:27;;;;;;;3.42;2.10;;;0.60;99.90;;;;;;5028983;28;20029;-75
2023/02/05 02:38:20;;;;;;;4.05;2.30;;;0.70;99.90;;;;;;5026268;28;20065;-75
2023/02/05 02:40:51;;;;;;;4.70;2.10;;;0.70;99.90;;;;;;5026399;28;20056;-75
2023/02/05 02:43:31;;;;;;;3.53;2.00;;;0.70;99.90;;;;;;5024601;28;20080;-75
2023/02/05 02:46:08;;;;;;;6.07;2.40;;;0.70;99.90;;;;;;5028652;28;20512;-75
2023/02/05 02:48:38;;;;;;;6.43;2.35;;;0.70;99.90;;;;;;5028958;28;20017;-75
2023/02/05 02:51:08;;;;;;;4.00;2.22;;;0.70;99.90;;;;;;5026859;28;20180;-75
2023/02/05 02:53:37;;;;;;;4.78;2.40;;;0.70;99.90;;;;;;5008477;28;20101;-75
2023/02/05 02:56:05;;;;;;;5.00;1.95;;;0.70;99.90;;;;;;5029120;28;20386;-75
2023/02/05 02:58:38;;;;;;;3.72;1.85;;;0.60;99.90;;;;;;5030985;28;20032;-75
2023/02/05 03:01:07;;;;;;;4.35;2.45;;;0.70;99.90;;;;;;5029419;28;20405;-76
2023/02/05 03:03:39;;;;;;;5.43;2.30;;;0.70;99.90;;;;;;5046911;28;20056;-76
2023/02/05 03:06:08;;;;;;;2.95;2.42;;;0.60;99.90;;;;;;5029879;28;20037;-76
2023/02/05 03:08:57;;;;;;;4.03;2.78;;;0.70;99.90;;;;;;5029330;28;20615;-76
2023/02/05 03:11:25;;;;;;;4.68;2.10;;;0.60;99.90;;;;;;5037955;28;20051;-76
2023/02/05 03:13:51;;;;;;;4.15;2.33;;;0.60;99.90;;;;;;5043326;28;20032;-75
2023/02/05 03:16:19;;;;;;;3.92;2.25;;;0.60;99.90;;;;;;5029308;28;20449;-75
2023/02/05 03:18:45;;;;;;;3.60;2.10;;;0.60;99.90;;;;;;5030347;28;20037;-74
2023/02/05 03:21:42;;;;;;;3.70;1.92;;;0.70;99.90;;;;;;5029394;28;20044;-75
2023/02/05 03:24:08;;;;;;;3.88;2.20;;;0.60;99.90;;;;;;5010937;28;20041;-76
2023/02/05 03:26:37;;;;;;;4.43;2.08;;;0.60;99.90;;;;;;5011873;28;20036;-74
2023/02/05 03:29:06;;;;;;;4.00;2.00;;;0.60;99.90;;;;;;5029659;28;20022;-74
2023/02/05 03:31:54;;;;;;;5.28;2.70;;;0.60;99.90;;;;;;5029749;28;20035;-73
2023/02/05 03:34:26;;;;;;;6.47;2.25;;;0.60;99.90;;;;;;5028463;28;20037;-74
2023/02/05 03:37:18;;;;;;;4.07;2.65;;;0.60;99.90;;;;;;5032799;28;20397;-74
2023/02/05 03:39:48;;;;;;;6.13;2.80;;;0.60;99.90;;;;;;5038309;28;20494;-74
2023/02/05 03:42:21;;;;;;;6.68;2.03;;;0.60;99.90;;;;;;5000977;28;20581;-75
2023/02/05 03:45:14;;;;;;;3.17;2.40;;;0.60;99.90;;;;;;5029212;28;20033;-75
2023/02/05 03:47:51;;;;;;;4.63;2.42;;;0.60;99.90;;;;;;5025588;28;20030;-75
2023/02/05 03:50:31;;;;;;;5.88;2.05;;;0.60;99.90;;;;;;5025789;28;20032;-74
2023/02/05 03:53:18;;;;;;;5.07;2.85;;;0.50;99.90;;;;;;5027737;28;20034;-75
2023/02/05 03:55:48;;;;;;;5.20;2.30;;;0.60;99.90;;;;;;5029003;28;20044;-74
2023/02/05 03:58:20;;;;;;;3.53;2.13;;;0.50;99.90;;;;;;5028440;28;20505;-74
2023/02/05 04:00:46;;;;;;;5.75;1.92;;;0.60;99.90;;;;;;5028561;28;20030;-74
2023/02/05 04:03:13;;;;;;;5.80;2.53;;;0.60;99.90;;;;;;5028705;28;20482;-74
2023/02/05 04:05:39;;;;;;;4.80;2.42;;;0.60;99.90;;;;;;5026653;28;20512;-74
2023/02/05 04:08:05;;;;;;;7.40;2.83;;;0.60;99.90;;;;;;5026669;28;20029;-74
2023/02/05 04:10:31;;;;;;;3.92;2.25;;;0.60;99.90;;;;;;5028525;28;20056;-74
2023/02/05 04:12:57;;;;;;;5.30;2.20;;;0.70;99.90;;;;;;5024390;28;20029;-75
2023/02/05 04:15:23;;;;;;;4.50;2.22;;;0.70;99.90;;;;;;5025626;28;20095;-74
2023/02/05 04:17:49;;;;;;;3.67;2.20;;;0.70;99.90;;;;;;5024965;28;20025;-75
2023/02/05 04:20:15;;;;;;;4.72;2.60;;;0.70;99.90;;;;;;5028375;28;20520;-75
2023/02/05 04:22:40;;;;;;;3.80;2.28;;;0.80;99.90;;;;;;5026185;28;21747;-74
2023/02/05 04:25:06;;;;;;;4.03;2.35;;;0.70;99.90;;;;;;5027803;28;20033;-75
2023/02/05 04:27:32;;;;;;;7.55;2.17;;;0.80;99.90;;;;;;5029656;28;20055;-75
2023/02/05 04:29:58;;;;;;;5.72;2.55;;;0.80;99.90;;;;;;5028354;28;20449;-75
2023/02/05 04:32:24;;;;;;;3.60;2.20;;;0.80;99.90;;;;;;5026069;28;20115;-75
2023/02/05 04:34:49;;;;;;;4.57;2.35;;;0.80;99.90;;;;;;5029694;28;20124;-75
2023/02/05 04:37:15;;;;;;;3.28;2.00;;;0.80;99.90;;;;;;5040491;28;20486;-75
2023/02/05 04:39:41;;;;;;;6.28;2.50;;;0.80;99.90;;;;;;5027407;28;20399;-75
2023/02/05 04:42:07;;;;;;;3.40;2.15;;;0.80;99.90;;;;;;5027632;28;20057;-74
2023/02/05 04:44:32;;;;;;;6.63;2.45;;;0.80;99.90;;;;;;5027956;28;20040;-76
2023/02/05 04:46:58;;;;;;;3.95;2.13;;;0.80;99.90;;;;;;5026612;28;20048;-75
2023/02/05 04:49:24;;;;;;;4.40;2.20;;;0.80;99.90;;;;;;5026911;28;20045;-75
2023/02/05 04:51:50;;;;;;;4.65;2.53;;;0.70;99.90;;;;;;5029570;28;20026;-75
2023/02/05 04:54:15;;;;;;;6.40;2.35;;;0.80;99.90;;;;;;5030247;28;20029;-74
2023/02/05 04:56:41;;;;;;;3.78;2.53;;;0.80;99.90;;;;;;5027617;28;20466;-76
2023/02/05 04:59:07;;;;;;;4.55;2.38;;;0.80;99.90;;;;;;5028631;28;20033;-75
2023/02/05 05:01:33;;;;;;;4.72;2.47;;;0.70;99.90;;;;;;5029254;28;20571;-74
2023/02/05 05:03:58;;;;;;;4.25;1.98;;;0.70;99.90;;;;;;5027270;28;20033;-75
2023/02/05 05:06:24;;;;;;;5.13;2.70;;;0.70;99.90;;;;;;5028760;28;20124;-76
2023/02/05 05:08:50;;;;;;;6.85;2.50;;;0.70;99.90;;;;;;5041555;28;20040;-75
2023/02/05 05:11:18;;;;;;;4.28;2.40;;;0.70;99.90;;;;;;5026498;28;20025;-75
2023/02/05 05:13:44;;;;;;;4.10;2.00;;;0.70;99.90;;;;;;5026005;28;20021;-74
2023/02/05 05:16:11;;;;;;;5.20;2.45;;;0.80;99.90;;;;;;5025468;28;20029;-75
2023/02/05 05:18:39;;;;;;;6.57;2.92;;;0.80;99.90;;;;;;5027371;28;20041;-75
2023/02/05 05:21:05;;;;;;;4.68;2.47;;;0.70;99.90;;;;;;5026736;28;20040;-74
2023/02/05 05:23:32;;;;;;;4.85;2.60;;;0.80;99.90;;;;;;5021124;28;20120;-74
2023/02/05 05:25:58;;;;;;;3.78;2.10;;;0.70;99.90;;;;;;4998281;28;20037;-75
2023/02/05 05:28:24;;;;;;;4.07;2.20;;;0.70;99.90;;;;;;5015291;28;20025;-75
2023/02/05 05:30:49;;;;;;;6.35;2.60;;;0.70;99.90;;;;;;5015840;28;20448;-75
2023/02/05 05:33:15;;;;;;;6.45;2.38;;;0.70;99.90;;;;;;4998010;28;20109;-75
2023/02/05 05:35:44;;;;;;;6.18;2.60;;;0.70;99.90;;;;;;5017518;28;20033;-74
2023/02/05 05:38:09;;;;;;;6.10;3.00;;;0.70;99.90;;;;;;5030343;28;20033;-75
2023/02/05 05:46:06;;;;;;;4.60;2.28;;;0.70;99.90;;;;;;5028038;28;20402;-75
2023/02/05 05:48:32;;;;;;;3.35;2.10;;;0.70;99.90;;;;;;5024557;28;20406;-75
2023/02/05 05:50:58;;;;;;;5.57;2.25;;;0.70;99.90;;;;;;5026339;28;20041;-75
2023/02/05 05:53:23;;;;;;;4.82;2.33;;;0.70;99.90;;;;;;5023553;28;20021;-74
2023/02/05 05:55:49;;;;;;;5.22;2.70;;;0.70;99.90;;;;;;5026489;28;20021;-74
2023/02/05 05:58:15;;;;;;;5.90;2.72;;;0.70;99.90;;;;;;5025451;28;20170;-75
2023/02/05 06:00:41;;;;;;;3.67;2.50;;;0.70;99.90;;;;;;5023404;28;20026;-74
2023/02/05 06:03:09;;;;;;;3.42;2.70;;;0.70;99.90;;;;;;5005797;28;20030;-75
2023/02/05 06:05:35;;;;;;;7.35;2.97;;;0.70;99.90;;;;;;5025620;28;20401;-74
2023/02/05 06:08:01;;;;;;;4.95;2.55;;;0.70;99.90;;;;;;5022288;28;20116;-75
2023/02/05 06:10:27;;;;;;;5.60;2.88;;;0.70;99.90;;;;;;5026619;28;20212;-75
2023/02/05 06:12:54;;;;;;;7.38;2.70;;;0.70;99.90;;;;;;5023874;28;20484;-75
2023/02/05 06:15:20;;;;;;;5.05;2.88;;;0.70;99.90;;;;;;5026934;28;20239;-75
2023/02/05 06:17:46;;;;;;;5.60;2.83;;;0.70;99.90;;;;;;5026507;28;20030;-76
2023/02/05 06:20:12;;;;;;;6.03;2.65;;;0.70;99.90;;;;;;5027049;28;20049;-75
2023/02/05 06:22:39;;;;;;;6.78;3.20;;;0.70;99.90;;;;;;5018758;28;20055;-75
2023/02/05 06:25:05;;;;;;;5.60;2.50;;;0.70;99.90;;;;;;5024524;28;20040;-76
2023/02/05 06:27:31;;;;;;;9.23;3.00;;;0.70;99.90;;;;;;5026784;28;20025;-74
2023/02/05 06:29:57;;;;;;;4.65;2.80;;;0.70;99.90;;;;;;5029774;28;20030;-74
2023/02/05 06:32:23;;;;;;;4.97;2.75;;;0.70;99.90;;;;;;5028060;28;20140;-74
2023/02/05 06:34:48;;;;;;;6.15;2.80;;;0.70;99.90;;;;;;5035370;28;20061;-74
2023/02/05 06:37:14;;;;;;;5.15;3.40;;;0.60;99.90;;;;;;5029776;28;20039;-74
2023/02/05 06:39:40;;;;;;;4.13;2.45;;;0.60;99.90;;;;;;5031264;28;20044;-75
2023/02/05 06:42:06;;;;;;;4.20;2.45;;;0.60;99.90;;;;;;5029635;28;20018;-73
2023/02/05 06:44:32;;;;;;;4.47;2.72;;;0.70;99.90;;;;;;5033583;28;20112;-74
2023/02/05 06:46:59;;;;;;;6.00;2.80;;;0.70;99.90;;;;;;5036021;28;20036;-75
2023/02/05 06:49:24;;;;;;;4.53;2.63;;;0.60;99.90;;;;;;5033630;28;20057;-75
2023/02/05 06:51:50;;;;;;;5.15;3.03;;;0.70;99.90;;;;;;5023695;28;20105;-75
2023/02/05 06:54:16;;;;;;;4.40;2.80;;;0.60;99.90;;;;;;5036824;28;20429;-74
2023/02/05 06:56:43;;;;;;;5.35;2.85;;;0.60;99.90;;;;;;5039548;28;20501;-75
2023/02/05 06:59:09;;;;;;;7.25;2.92;;;0.60;99.90;;;;;;5027862;28;20156;-75
2023/02/05 07:01:35;;;;;;;6.78;3.30;;;0.60;99.90;;;;;;5013200;28;20545;-75
2023/02/05 07:04:01;;;;;;;6.30;2.78;;;1.20;99.90;;;;;;5045445;28;20085;-74
2023/02/05 07:06:27;;;;;;;4.45;2.55;;;1.00;99.90;;;;;;5029493;28;20505;-75
2023/02/05 07:08:54;;;;;;;5.45;2.53;;;0.90;99.90;;;;;;5025726;28;20099;-75
2023/02/05 07:11:21;;;;;;;3.70;2.67;;;0.80;99.90;;;;;;5029768;28;20055;-74
2023/02/05 07:13:47;;;;;;;5.40;2.63;;;0.70;99.90;;;;;;5028813;28;20113;-75
2023/02/05 07:16:13;;;;;;;5.28;2.85;;;0.70;99.90;;;;;;5025416;28;20040;-74
2023/02/05 07:18:39;;;;;;;5.28;3.17;;;0.70;99.90;;;;;;5030953;28;20030;-74
2023/02/05 07:21:11;;;;;;;4.38;2.33;;;0.60;99.90;;;;;;5028265;28;20037;-75
2023/02/05 07:23:37;;;;;;;5.53;3.15;;;0.60;99.90;;;;;;5028754;28;20025;-75
2023/02/05 07:26:07;;;;;;;5.22;3.08;;;0.60;99.90;;;;;;5027137;28;20033;-75
2023/02/05 07:28:33;;;;;;;4.10;2.63;;;0.60;99.90;;;;;;5028817;28;20487;-75
2023/02/05 07:31:04;;;;;;;6.45;3.20;;;0.60;99.90;;;;;;5030032;28;20295;-75
2023/02/05 07:33:30;;;;;;;5.57;3.13;;;0.60;99.90;;;;;;5030827;28;20489;-74
2023/02/05 07:35:56;;;;;;;6.80;2.80;;;0.70;99.90;;;;;;5044906;28;20194;-75
2023/02/05 07:38:23;;;;;;;6.43;2.92;;;0.70;99.90;;;;;;5026534;28;20084;-74
2023/02/05 07:40:50;;;;;;;8.27;3.13;;;0.70;99.90;;;;;;5028544;28;20425;-74
2023/02/05 07:43:15;;;;;;;5.75;3.42;;;0.70;99.90;;;;;;5007330;28;20064;-74
2023/02/05 07:45:41;;;;;;;5.90;3.15;;;0.70;99.90;;;;;;5024359;28;20176;-74
2023/02/05 07:48:07;;;;;;;7.25;3.25;;;0.70;99.90;;;;;;5030676;28;20108;-76
2023/02/05 07:50:33;;;;;;;7.63;3.70;;;0.70;99.90;;;;;;5027988;28;20030;-76
2023/02/05 07:52:58;;;;;;;5.68;3.13;;;0.80;99.90;;;;;;5028432;28;20026;-75
2023/02/05 07:55:24;;;;;;;6.43;2.97;;;0.80;99.90;;;;;;5028233;28;20032;-74
2023/02/05 07:57:50;;;;;;;6.10;3.13;;;0.80;99.90;;;;;;5024137;28;20035;-75
2023/02/05 08:00:16;;;;;;;5.95;3.10;;;0.80;99.90;;;;;;5010406;28;20033;-75
2023/02/05 08:02:41;;;;;;;5.10;2.90;;;0.80;99.90;;;;;;5027845;28;20032;-74
2023/02/05 08:05:07;;;;;;;5.88;2.97;;;0.80;99.90;;;;;;5027162;28;20116;-74
2023/02/05 08:07:33;;;;;;;4.55;2.90;;;0.80;99.90;;;;;;5022858;28;20052;-76
2023/02/05 08:09:59;;;;;;;6.80;2.92;;;0.80;99.90;;;;;;5025423;28;20350;-74
2023/02/05 08:12:25;;;;;;;6.20;2.92;;;0.80;99.90;;;;;;5030224;28;20021;-76
2023/02/05 08:14:51;;;;;;;7.10;3.70;;;0.80;99.90;;;;;;5043835;28;20056;-76
2023/02/05 08:17:17;;;;;;;4.95;2.97;;;0.80;99.90;;;;;;5038451;28;20030;-74
2023/02/05 08:19:43;;;;;;;5.25;3.20;;;0.90;99.90;;;;;;5043489;28;20676;-73
2023/02/05 08:22:08;;;;;;;6.55;3.17;;;0.90;99.90;;;;;;5029091;28;20042;-75
2023/02/05 08:24:34;;;;;;;6.55;3.63;;;0.90;99.90;;;;;;5012689;28;20041;-77
2023/02/05 08:27:00;;;;;;;6.55;3.53;;;0.90;99.90;;;;;;5026085;28;20033;-74
2023/02/05 08:29:25;;;;;;;6.57;3.47;;;1.00;99.90;;;;;;5029203;28;20100;-75
2023/02/05 08:31:51;;;;;;;6.25;3.67;;;1.00;99.90;;;;;;5010280;28;20469;-75
2023/02/05 08:34:17;;;;;;;8.48;3.78;;;1.00;99.90;;;;;;5023987;28;20028;-74
2023/02/05 08:36:43;;;;;;;6.32;3.75;;;1.10;99.90;;;;;;5024860;28;20018;-76
2023/02/05 08:39:08;;;;;;;6.88;3.92;;;1.10;99.90;;;;;;5024943;28;20030;-75
2023/02/05 08:41:35;;;;;;;6.85;3.90;;;1.20;99.90;;;;;;5027622;28;20072;-74
2023/02/05 08:44:01;;;;;;;6.50;3.53;;;1.20;99.90;;;;;;5042092;28;20087;-75
2023/02/05 08:46:27;;;;;;;5.70;3.80;;;1.20;99.90;;;;;;5041131;28;20351;-74
2023/02/05 08:48:53;;;;;;;6.22;3.03;;;1.20;99.90;;;;;;5027755;28;20030;-76
2023/02/05 08:51:21;;;;;;;6.63;3.63;;;1.30;99.90;;;;;;5028969;28;20033;-75
2023/02/05 08:53:48;;;;;;;7.72;3.58;;;1.30;99.90;;;;;;5020490;28;20482;-74
2023/02/05 08:56:15;;;;;;;6.75;3.55;;;1.30;99.90;;;;;;5025247;28;20033;-77
2023/02/05 08:58:42;;;;;;;6.55;3.72;;;1.40;99.90;;;;;;5026359;28;20048;-75
2023/02/05 09:01:10;;;;;;;4.65;3.10;;;1.40;99.90;;;;;;5023763;28;20084;-76
2023/02/05 09:03:36;;;;;;;6.88;3.72;;;1.40;99.90;;;;;;5027363;28;20984;-75
2023/02/05 09:06:09;;;;;;;7.82;3.42;;;1.50;99.90;;;;;;5027953;28;20037;-76
2023/02/05 09:08:35;;;;;;;7.47;3.13;;;1.50;99.90;;;;;;5027480;28;20028;-75
2023/02/05 09:11:01;;;;;;;5.43;3.20;;;1.50;99.90;;;;;;5024413;28;20704;-76
2023/02/05 09:13:27;;;;;;;10.82;3.72;;;1.50;99.90;;;;;;5023789;28;20129;-76
2023/02/05 09:15:53;;;;;;;6.10;3.42;;;1.60;99.90;;;;;;5028509;28;20087;-75
2023/02/05 09:18:19;;;;;;;8.68;3.78;;;1.60;99.90;;;;;;5027440;28;20030;-75
2023/02/05 09:20:47;;;;;;;6.93;3.67;;;1.60;99.90;;;;;;5027284;28;20052;-75
2023/02/05 09:23:14;;;;;;;7.82;3.22;;;1.50;99.90;;;;;;5027640;28;20099;-75
2023/02/05 09:25:41;;;;;;;7.47;3.63;;;2.30;99.90;;;;;;5024120;28;20789;-74
2023/02/05 09:28:09;;;;;;;6.05;3.78;;;2.20;99.90;;;;;;5024012;28;21029;-75
2023/02/05 09:30:36;;;;;;;5.93;2.95;;;2.00;99.90;;;;;;5027619;28;20032;-75
2023/02/05 09:33:03;;;;;;;6.57;3.67;;;1.90;99.90;;;;;;5027924;28;20034;-75
2023/02/05 09:35:31;;;;;;;8.55;3.80;;;1.90;99.90;;;;;;5007794;28;20554;-74
2023/02/05 09:37:58;;;;;;;6.82;4.03;;;1.80;99.90;;;;;;5026037;28;20100;-74
2023/02/05 09:40:28;;;;;;;10.38;3.63;;;1.80;99.90;;;;;;5025119;28;20025;-74
2023/02/05 09:43:25;;;;;;;6.07;3.50;;;1.80;99.90;;;;;;5026594;28;20133;-74
2023/02/05 09:46:06;;;;;;;5.57;3.10;;;1.80;99.90;;;;;;5038502;28;20916;-74
2023/02/05 09:48:53;;;;;;;8.02;3.85;;;1.70;99.90;;;;;;5029303;28;20148;-74
2023/02/05 09:51:36;;;;;;;6.40;3.22;;;1.70;99.90;;;;;;5028326;28;20030;-75
2023/02/05 09:54:19;;;;;;;6.60;3.80;;;1.70;99.90;;;;;;5024842;28;20033;-75
2023/02/05 09:56:47;;;;;;;7.22;4.10;;;1.70;99.90;;;;;;5025467;28;20021;-75
2023/02/05 09:59:19;;;;;;;6.25;3.35;;;1.70;99.90;;;;;;5030198;28;20089;-74
2023/02/05 10:01:51;;;;;;;7.40;3.58;;;1.80;99.90;;;;;;5025937;28;20026;-75
2023/02/05 10:04:17;;;;;;;6.80;3.58;;;1.80;99.90;;;;;;5024168;28;20037;-75
2023/02/05 10:07:25;;;;;;;7.55;3.67;;;1.80;99.90;;;;;;5029988;28;20397;-74
2023/02/05 10:09:57;;;;;;;6.18;3.80;;;1.90;99.90;;;;;;5029467;28;20025;-74
2023/02/05 10:12:50;;;;;;;6.70;3.92;;;1.90;99.90;;;;;;5031087;28;20021;-75
2023/02/05 10:15:23;;;;;;;7.28;3.90;;;1.90;99.90;;;;;;5028965;28;20041;-74
2023/02/05 10:17:49;;;;;;;6.32;3.30;;;2.00;99.90;;;;;;5029677;28;20037;-74
2023/02/05 10:20:30;;;;;;;6.13;3.70;;;2.00;99.90;;;;;;5027796;28;20092;-74
2023/02/05 10:23:12;;;;;;;5.63;3.65;;;2.10;99.90;;;;;;5031774;28;20029;-75
2023/02/05 10:26:00;;;;;;;9.18;3.40;;;2.00;99.90;;;;;;5029373;28;20029;-76
2023/02/05 10:28:32;;;;;;;6.57;3.40;;;2.10;99.90;;;;;;5028747;28;20071;-75
2023/02/05 10:31:16;;;;;;;7.32;3.60;;;2.20;99.90;;;;;;5028511;28;20033;-75
2023/02/05 10:33:48;;;;;;;6.97;3.78;;;2.20;99.90;;;;;;5010463;28;20033;-75
2023/02/05 10:36:18;;;;;;;8.07;3.78;;;2.30;99.90;;;;;;5027506;28;20026;-76
2023/02/05 10:38:45;;;;;;;6.47;3.70;;;2.30;99.90;;;;;;5027969;28;21001;-76
2023/02/05 10:41:39;;;;;;;4.80;3.70;;;2.30;99.90;;;;;;5042692;28;20038;-75
2023/02/05 10:44:27;;;;;;;9.20;3.63;;;2.40;99.90;;;;;;5030325;28;20040;-75
2023/02/05 10:47:00;;;;;;;8.00;4.03;;;2.40;99.90;;;;;;5025691;28;20140;-74
2023/02/05 10:49:40;;;;;;;8.48;3.92;;;2.50;99.90;;;;;;5010737;28;20087;-76
2023/02/05 10:52:13;;;;;;;8.70;3.42;;;2.50;99.90;;;;;;5043532;28;20045;-75
2023/02/05 10:54:39;;;;;;;4.60;3.30;;;2.50;99.90;;;;;;5028802;28;20104;-76
2023/02/05 10:57:15;;;;;;;5.45;3.40;;;2.60;99.90;;;;;;5031730;28;20084;-76
2023/02/05 11:00:14;;;;;;;5.38;3.40;;;2.60;99.90;;;;;;5027948;28;20036;-76
2023/02/05 11:02:43;;;;;;;7.07;4.07;;;2.60;99.90;;;;;;5017587;28;20599;-76
2023/02/05 11:05:33;;;;;;;6.75;3.90;;;2.60;99.90;;;;;;5012913;28;20104;-76
2023/02/05 11:07:59;;;;;;;5.23;3.77;;;2.60;99.90;;;;;;5031992;28;20045;-75
2023/02/05 11:10:28;;;;;;;5.38;3.88;;;2.60;99.90;;;;;;5026022;28;20035;-76
2023/02/05 11:13:13;;;;;;;8.27;4.22;;;2.60;99.90;;;;;;5028493;28;20112;-75
2023/02/05 11:16:02;;;;;;;12.55;4.70;;;2.60;99.90;;;;;;5040590;28;20031;-76
2023/02/05 11:18:42;;;;;;;6.95;3.83;;;2.60;99.90;;;;;;5030042;28;20033;-75
2023/02/05 11:21:08;;;;;;;5.90;3.70;;;2.60;99.90;;;;;;5026993;28;20038;-75
2023/02/05 11:23:38;;;;;;;8.00;4.07;;;2.60;99.90;;;;;;5030400;28;20523;-75
2023/02/05 11:26:17;;;;;;;7.38;4.25;;;2.70;99.90;;;;;;5026634;28;20037;-75
2023/02/05 11:28:43;;;;;;;8.60;4.63;;;2.70;99.90;;;;;;5026651;28;20040;-75
2023/02/05 11:31:25;;;;;;;1176.82;514.67;;;2.70;99.90;;;;;;5029951;28;20113;-76
2023/02/05 11:34:08;;;;;;;770.42;335.77;;;2.90;99.90;;;;;;5032210;28;20034;-76
2023/02/05 11:36:37;;;;;;;1793.32;847.42;;;2.80;99.90;;;;;;5028788;28;20417;-76
2023/02/05 11:39:05;;;;;;;215.98;102.40;;;2.90;99.90;;;;;;5046885;28;20030;-76
2023/02/05 11:41:46;;;;;;;15.60;9.05;;;2.90;99.90;;;;;;5030743;28;20524;-75
2023/02/05 11:44:24;;;;;;;10.30;6.10;;;3.00;99.90;;;;;;5030830;28;20037;-76
2023/02/05 11:46:55;;;;;;;8.45;4.35;;;3.10;99.90;;;;;;5031721;28;20513;-75
2023/02/05 11:49:27;;;;;;;9.45;4.05;;;3.00;99.90;;;;;;5038783;28;20021;-75
2023/02/05 11:51:55;;;;;;;8.20;4.13;;;3.00;99.90;;;;;;5031172;28;20025;-75
2023/02/05 11:54:28;;;;;;;7.88;4.20;;;3.00;99.90;;;;;;5026995;28;20029;-73
2023/02/05 11:57:06;;;;;;;6.80;3.50;;;3.10;99.90;;;;;;5029791;28;20640;-75
2023/02/05 11:59:34;;;;;;;7.57;3.75;;;3.20;99.90;;;;;;5025259;28;20032;-75
2023/02/05 12:02:24;;;;;;;10.10;4.30;;;3.20;99.90;;;;;;5030675;28;20116;-75
2023/02/05 12:04:57;;;;;;;7.77;4.00;;;3.20;99.90;;;;;;5029887;28;20064;-76
2023/02/05 12:07:27;;;;;;;8.88;4.45;;;3.20;99.90;;;;;;5027101;28;20033;-76
2023/02/05 12:09:58;;;;;;;6.63;4.30;;;3.30;99.90;;;;;;5029859;28;20397;-76
2023/02/05 12:12:52;;;;;;;9.57;4.80;;;3.30;99.90;;;;;;5027027;28;20033;-75
2023/02/05 12:15:36;;;;;;;10.50;4.50;;;3.30;99.90;;;;;;5026189;28;20489;-76
2023/02/05 12:18:23;;;;;;;9.55;4.95;;;3.30;99.90;;;;;;5028644;28;20029;-75
2023/02/05 12:21:09;;;;;;;8.43;4.90;;;3.30;99.90;;;;;;5025101;28;20048;-75
2023/02/05 12:23:41;;;;;;;11.48;5.20;;;3.40;99.90;;;;;;5029593;28;20030;-77
2023/02/05 12:26:28;;;;;;;8.50;5.30;;;3.50;99.90;;;;;;5029755;28;20036;-75
2023/02/05 12:29:13;;;;;;;10.10;3.90;;;3.40;99.90;;;;;;5011359;28;20509;-78
2023/02/05 12:32:07;;;;;;;7.50;4.47;;;3.40;99.90;;;;;;5026673;28;20025;-77
2023/02/05 12:34:45;;;;;;;7.85;4.88;;;3.30;99.90;;;;;;5021987;28;20612;-77
2023/02/05 12:37:26;;;;;;;7.25;4.00;;;3.20;99.90;;;;;;5027268;28;20057;-75
2023/02/05 12:40:19;;;;;;;9.35;4.47;;;3.20;99.90;;;;;;5030476;28;20026;-74
2023/02/05 12:43:00;;;;;;;7.25;4.13;;;3.10;99.90;;;;;;5001333;28;20068;-75
2023/02/05 12:45:44;;;;;;;;;;;3.10;99.90;;;;;;5041189;28;20033;-75
2023/02/05 12:48:39;;;;;;;10.75;4.15;;;3.20;99.90;;;;;;5025739;28;19956;-75
2023/02/05 12:51:24;;;;;;;6.63;3.65;;;3.10;99.90;;;;;;4978800;28;20616;-75
2023/02/05 12:54:06;;;;;;;10.25;4.13;;;3.20;99.90;;;;;;5020809;28;20335;-75
2023/02/05 12:56:59;;;;;;;6.18;4.10;;;3.40;99.90;;;;;;5040482;28;20040;-74
2023/02/05 12:59:34;;;;;;;8.43;4.40;;;3.50;99.90;;;;;;5024685;28;20067;-74
2023/02/05 13:02:18;;;;;;;10.50;4.47;;;3.50;99.90;;;;;;5028300;28;20033;-75
2023/02/05 13:04:59;;;;;;;9.30;4.70;;;3.60;99.90;;;;;;5022061;28;20106;-74
2023/02/05 13:07:30;;;;;;;8.43;4.35;;;3.50;99.90;;;;;;5024874;28;20565;-74
2023/02/05 13:10:06;;;;;;;8.35;4.30;;;3.40;99.90;;;;;;5024889;28;20410;-74
2023/02/05 13:12:38;;;;;;;11.15;4.65;;;3.50;99.90;;;;;;5026264;28;20547;-75
2023/02/05 13:15:07;;;;;;;10.02;4.65;;;3.40;99.90;;;;;;5023594;28;20090;-74
2023/02/05 13:17:39;;;;;;;6.63;3.90;;;3.40;99.90;;;;;;5026290;28;20091;-75
2023/02/05 13:29:10;;;;;;;6.68;4.05;;;3.40;99.90;;;;;;4966252;28;20030;-77